Time;durP1;ratioP1;P1;durP2;ratioP2;P2;SDS_P1;SDS_P2;PMS_P1;PMS_P2;Temp;Humidity;BMP_temperature;BMP_pressure;BME280_temperature;BME280_humidity;BME280_pressure;Samples;Min_cycle;Max_cycle;Signal;HPM_P1;HPM_P2
2023/05/13 00:01:21;;;;;;;24.58;18.80;;;15.70;99.90;;;;;;4953002;29;20024;-72
2023/05/13 00:03:47;;;;;;;25.38;19.42;;;15.70;99.90;;;;;;4946464;29;20023;-72
2023/05/13 00:06:13;;;;;;;21.63;17.40;;;15.60;99.90;;;;;;4945189;28;20060;-72
2023/05/13 00:08:39;;;;;;;19.10;16.15;;;15.70;99.90;;;;;;4954193;28;20071;-72
2023/05/13 00:11:05;;;;;;;20.00;15.85;;;15.70;99.90;;;;;;4954145;28;20435;-72
2023/05/13 00:13:31;;;;;;;21.80;14.60;;;15.70;99.90;;;;;;4936976;29;20024;-72
2023/05/13 00:15:56;;;;;;;20.58;14.25;;;15.70;99.90;;;;;;4946801;29;20478;-72
2023/05/13 00:18:22;;;;;;;16.02;12.85;;;15.70;99.90;;;;;;4953249;28;20167;-72
2023/05/13 00:20:47;;;;;;;16.27;12.27;;;15.70;99.90;;;;;;4953327;28;20028;-72
2023/05/13 00:23:13;;;;;;;15.50;12.27;;;15.70;99.90;;;;;;4953260;28;20081;-72
2023/05/13 00:25:40;;;;;;;18.00;11.57;;;15.70;99.90;;;;;;4952565;29;20023;-72
2023/05/13 00:28:05;;;;;;;15.13;11.02;;;15.70;99.90;;;;;;4953947;28;20031;-72
2023/05/13 00:30:31;;;;;;;18.15;11.82;;;15.70;99.90;;;;;;4953568;29;20015;-72
2023/05/13 00:32:57;;;;;;;15.32;10.98;;;15.80;99.90;;;;;;4953548;28;20026;-72
2023/05/13 00:35:23;;;;;;;16.40;11.40;;;15.80;99.90;;;;;;4943893;28;20436;-72
2023/05/13 00:37:48;;;;;;;17.13;10.90;;;15.80;99.90;;;;;;4939401;28;20031;-72
2023/05/13 00:40:22;;;;;;;13.70;10.13;;;15.80;99.90;;;;;;4946602;29;20471;-72
2023/05/13 00:42:48;;;;;;;16.02;11.18;;;15.80;99.90;;;;;;4941054;28;20054;-72
2023/05/13 00:45:14;;;;;;;15.68;10.35;;;15.80;99.90;;;;;;4942553;29;20039;-72
2023/05/13 00:47:41;;;;;;;16.65;10.23;;;15.80;99.90;;;;;;4951467;29;20069;-72
2023/05/13 00:50:08;;;;;;;16.00;10.88;;;15.80;99.90;;;;;;4953471;29;20046;-72
2023/05/13 00:52:38;;;;;;;15.65;10.95;;;15.70;99.90;;;;;;4950979;29;20015;-72
2023/05/13 00:55:05;;;;;;;15.45;10.98;;;15.70;99.90;;;;;;4953361;28;20027;-72
2023/05/13 00:57:31;;;;;;;15.15;11.95;;;15.70;99.90;;;;;;4948910;29;20106;-72
2023/05/13 00:59:57;;;;;;;17.17;11.35;;;15.70;99.90;;;;;;4947162;28;20039;-72
2023/05/13 01:02:41;;;;;;;21.00;12.02;;;15.60;99.90;;;;;;4953115;28;20611;-72
2023/05/13 01:05:22;;;;;;;20.42;12.13;;;15.70;99.90;;;;;;4961861;28;20047;-72
2023/05/13 01:08:08;;;;;;;16.90;11.55;;;15.60;99.90;;;;;;4949034;29;20027;-72
2023/05/13 01:10:46;;;;;;;17.75;11.73;;;15.60;99.90;;;;;;4941864;29;20016;-72
2023/05/13 01:13:16;;;;;;;14.05;10.98;;;15.60;99.90;;;;;;4951357;29;20027;-72
2023/05/13 01:15:52;;;;;;;19.10;12.10;;;15.50;99.90;;;;;;4944366;28;20020;-72
2023/05/13 01:18:43;;;;;;;15.95;11.70;;;15.50;99.90;;;;;;4951037;29;20351;-72
2023/05/13 01:21:10;;;;;;;16.67;11.93;;;15.50;99.90;;;;;;4943849;29;20023;-72
2023/05/13 01:23:36;;;;;;;16.73;12.35;;;15.50;99.90;;;;;;4949726;28;20035;-72
2023/05/13 01:26:02;;;;;;;15.25;11.95;;;15.40;99.90;;;;;;4953256;28;20027;-72
2023/05/13 01:28:28;;;;;;;15.10;11.50;;;15.40;99.90;;;;;;4949518;29;20031;-72
2023/05/13 01:30:55;;;;;;;17.92;11.13;;;15.30;99.90;;;;;;4953080;28;20106;-72
2023/05/13 01:33:22;;;;;;;17.75;12.23;;;15.30;99.90;;;;;;4951852;28;20131;-72
2023/05/13 01:35:48;;;;;;;15.45;12.73;;;15.30;99.90;;;;;;4943050;28;20027;-72
2023/05/13 01:38:14;;;;;;;26.75;12.15;;;15.20;99.90;;;;;;4936549;29;20028;-72
2023/05/13 01:40:41;;;;;;;14.18;11.15;;;15.20;99.90;;;;;;4936917;29;20107;-72
2023/05/13 01:43:07;;;;;;;15.98;11.05;;;15.10;99.90;;;;;;4934295;29;20051;-72
2023/05/13 01:45:32;;;;;;;18.15;11.60;;;15.10;99.90;;;;;;4947300;29;20694;-72
2023/05/13 01:47:58;;;;;;;17.63;10.98;;;15.00;99.90;;;;;;4953114;29;20028;-72
2023/05/13 01:50:25;;;;;;;16.15;11.45;;;15.00;99.90;;;;;;4952746;29;20027;-72
2023/05/13 01:52:50;;;;;;;13.32;10.38;;;14.90;99.90;;;;;;4952526;28;20394;-72
2023/05/13 01:55:16;;;;;;;14.57;10.50;;;14.90;99.90;;;;;;4952894;29;20027;-72
2023/05/13 01:57:42;;;;;;;16.13;11.15;;;14.90;99.90;;;;;;4952789;28;20023;-72
2023/05/13 02:00:08;;;;;;;16.30;11.07;;;14.80;99.90;;;;;;4945304;29;20130;-72
2023/05/13 02:02:33;;;;;;;15.10;11.35;;;14.70;99.90;;;;;;4947302;29;20102;-72
2023/05/13 02:04:59;;;;;;;16.35;10.40;;;14.60;99.90;;;;;;4949877;28;20153;-72
2023/05/13 02:07:24;;;;;;;15.27;11.05;;;14.60;99.90;;;;;;4937500;29;20049;-72
2023/05/13 02:09:54;;;;;;;16.83;11.13;;;14.50;99.90;;;;;;4949411;29;20506;-72
2023/05/13 02:12:20;;;;;;;15.57;11.10;;;14.40;99.90;;;;;;4938056;29;20079;-72
2023/05/13 02:14:46;;;;;;;17.40;10.65;;;14.30;99.90;;;;;;4939026;29;20019;-72
2023/05/13 02:17:11;;;;;;;18.85;11.50;;;14.30;99.90;;;;;;4945886;29;20031;-72
2023/05/13 02:19:37;;;;;;;15.02;11.20;;;14.20;99.90;;;;;;4945676;29;20474;-72
2023/05/13 02:22:03;;;;;;;15.48;11.23;;;14.20;99.90;;;;;;4951873;29;20023;-72
2023/05/13 02:24:29;;;;;;;13.10;11.15;;;14.10;99.90;;;;;;4955962;29;20065;-72
2023/05/13 02:26:55;;;;;;;14.05;10.77;;;14.10;99.90;;;;;;4950255;28;20403;-72
2023/05/13 02:29:20;;;;;;;17.13;10.95;;;14.00;99.90;;;;;;4952030;29;20015;-72
2023/05/13 02:31:46;;;;;;;14.50;10.93;;;13.90;99.90;;;;;;4951264;29;20475;-72
2023/05/13 02:34:12;;;;;;;16.25;10.68;;;13.90;99.90;;;;;;4946962;28;20027;-72
2023/05/13 02:36:37;;;;;;;15.65;10.98;;;13.90;99.90;;;;;;4948894;28;20030;-72
2023/05/13 02:39:03;;;;;;;17.63;11.50;;;13.80;99.90;;;;;;4952435;29;20031;-72
2023/05/13 02:41:29;;;;;;;13.93;10.20;;;13.80;99.90;;;;;;4936551;29;20399;-72
2023/05/13 02:43:55;;;;;;;14.50;10.25;;;13.70;99.90;;;;;;4938078;29;20028;-72
2023/05/13 02:46:20;;;;;;;16.42;10.25;;;13.70;99.90;;;;;;4954844;29;20136;-72
2023/05/13 02:48:46;;;;;;;16.88;10.30;;;13.70;99.90;;;;;;4953954;29;20039;-72
2023/05/13 02:51:12;;;;;;;15.93;10.50;;;13.70;99.90;;;;;;4955481;28;20019;-72
2023/05/13 02:53:38;;;;;;;13.85;10.05;;;13.60;99.90;;;;;;4955603;28;20086;-72
2023/05/13 02:56:04;;;;;;;15.82;10.02;;;13.60;99.90;;;;;;4943846;28;20020;-72
2023/05/13 02:58:29;;;;;;;15.77;10.20;;;13.50;99.90;;;;;;4944604;29;20054;-72
2023/05/13 03:00:55;;;;;;;14.43;10.50;;;13.50;99.90;;;;;;4951939;29;20046;-72
2023/05/13 03:03:20;;;;;;;13.35;9.75;;;13.50;99.90;;;;;;4945336;29;20103;-72
2023/05/13 03:05:46;;;;;;;15.10;10.10;;;13.40;99.90;;;;;;4953698;28;20476;-72
2023/05/13 03:08:12;;;;;;;15.75;10.13;;;13.40;99.90;;;;;;4936825;29;20023;-72
2023/05/13 03:10:37;;;;;;;12.18;10.13;;;13.40;99.90;;;;;;4950770;29;20102;-72
2023/05/13 03:13:03;;;;;;;16.75;10.70;;;13.30;99.90;;;;;;4952602;28;20051;-72
2023/05/13 03:15:28;;;;;;;16.25;10.10;;;13.30;99.90;;;;;;4945985;28;20071;-72
2023/05/13 03:17:54;;;;;;;15.13;10.10;;;13.30;99.90;;;;;;4951760;29;20026;-72
2023/05/13 03:20:19;;;;;;;15.90;11.10;;;13.30;99.90;;;;;;4953938;28;20027;-72
2023/05/13 03:22:45;;;;;;;18.33;10.98;;;13.20;99.90;;;;;;4952477;28;20019;-72
2023/05/13 03:25:11;;;;;;;19.42;11.20;;;13.20;99.90;;;;;;4951938;29;20030;-72
2023/05/13 03:27:37;;;;;;;18.35;12.07;;;13.10;99.90;;;;;;4951589;28;20102;-72
2023/05/13 03:30:03;;;;;;;18.83;11.77;;;13.10;99.90;;;;;;4953203;29;20026;-72
2023/05/13 03:32:30;;;;;;;19.58;11.45;;;13.10;99.90;;;;;;4954947;28;20035;-72
2023/05/13 03:34:57;;;;;;;17.35;11.60;;;13.00;99.90;;;;;;4947797;29;20030;-72
2023/05/13 03:37:23;;;;;;;17.98;12.10;;;13.00;99.90;;;;;;4949779;29;20019;-72
2023/05/13 03:39:50;;;;;;;20.35;12.13;;;12.90;99.90;;;;;;4949943;29;20031;-72
2023/05/13 03:42:15;;;;;;;21.23;12.90;;;12.90;99.90;;;;;;4947172;28;20555;-72
2023/05/13 03:44:41;;;;;;;25.45;13.48;;;12.90;99.90;;;;;;4940965;29;20025;-72
2023/05/13 03:47:07;;;;;;;25.08;13.85;;;12.80;99.90;;;;;;4952843;29;20023;-72
2023/05/13 03:49:32;;;;;;;20.40;13.85;;;12.80;99.90;;;;;;4945981;29;20410;-72
2023/05/13 03:51:58;;;;;;;28.05;15.52;;;12.70;99.90;;;;;;4953689;29;20029;-72
2023/05/13 03:54:23;;;;;;;29.10;16.08;;;12.70;99.90;;;;;;4950197;29;20080;-72
2023/05/13 03:56:49;;;;;;;29.50;16.40;;;12.60;99.90;;;;;;4949377;29;20105;-72
2023/05/13 03:59:14;;;;;;;27.95;16.05;;;12.60;99.90;;;;;;4954447;29;20106;-72
2023/05/13 04:01:40;;;;;;;25.08;16.58;;;12.60;99.90;;;;;;4953097;28;20498;-72
2023/05/13 04:04:05;;;;;;;29.02;17.15;;;12.50;99.90;;;;;;4940381;29;20023;-72
2023/05/13 04:06:31;;;;;;;29.98;17.42;;;12.60;99.90;;;;;;4952883;29;20031;-72
2023/05/13 04:08:57;;;;;;;26.95;16.13;;;12.60;99.90;;;;;;4952071;29;20034;-72
2023/05/13 04:11:22;;;;;;;28.80;17.25;;;12.50;99.90;;;;;;4954014;29;20066;-72
2023/05/13 04:13:48;;;;;;;30.08;17.63;;;12.60;99.90;;;;;;4954209;29;20034;-72
2023/05/13 04:16:13;;;;;;;34.33;19.27;;;12.50;99.90;;;;;;4953911;28;20577;-72
2023/05/13 04:18:39;;;;;;;29.33;18.77;;;12.50;99.90;;;;;;4947410;28;20110;-72
2023/05/13 04:21:08;;;;;;;29.00;19.40;;;12.50;99.90;;;;;;4946405;28;20588;-72
2023/05/13 04:23:34;;;;;;;34.58;20.02;;;12.50;99.90;;;;;;4940859;29;20058;-72
2023/05/13 04:26:00;;;;;;;33.92;20.75;;;12.40;99.90;;;;;;4950145;29;20479;-72
2023/05/13 04:28:26;;;;;;;37.38;22.40;;;12.40;99.90;;;;;;4938400;29;20047;-72
2023/05/13 04:30:51;;;;;;;35.42;22.10;;;12.40;99.90;;;;;;4936561;29;20027;-72
2023/05/13 04:33:17;;;;;;;36.75;21.70;;;12.40;99.90;;;;;;4953964;28;20034;-72
2023/05/13 04:35:43;;;;;;;36.58;23.23;;;12.40;99.90;;;;;;4952118;28;20046;-72
2023/05/13 04:38:08;;;;;;;37.83;23.02;;;12.40;99.90;;;;;;4949426;29;20031;-72
2023/05/13 04:40:34;;;;;;;35.95;23.48;;;12.40;99.90;;;;;;4953770;29;20485;-72
2023/05/13 04:42:59;;;;;;;36.53;24.25;;;12.40;99.90;;;;;;4953809;29;20035;-72
2023/05/13 04:45:25;;;;;;;36.75;23.60;;;12.40;99.90;;;;;;4952238;29;20031;-72
2023/05/13 04:47:51;;;;;;;41.20;22.95;;;12.40;99.90;;;;;;4941180;29;20026;-72
2023/05/13 04:50:16;;;;;;;42.95;24.00;;;12.40;99.90;;;;;;4953058;29;20023;-72
2023/05/13 04:52:43;;;;;;;39.65;24.10;;;12.40;99.90;;;;;;4945883;29;20023;-72
2023/05/13 04:55:09;;;;;;;34.95;22.75;;;12.40;99.90;;;;;;4953526;28;20059;-72
2023/05/13 04:57:34;;;;;;;40.47;23.67;;;12.50;99.90;;;;;;4953523;28;20019;-72
2023/05/13 05:00:00;;;;;;;37.30;23.08;;;12.50;99.90;;;;;;4953517;28;20051;-72
2023/05/13 05:02:28;;;;;;;35.35;22.95;;;12.50;99.90;;;;;;4953059;28;20021;-72
2023/05/13 05:04:57;;;;;;;42.67;23.25;;;12.50;99.90;;;;;;4953308;28;20478;-72
2023/05/13 05:07:23;;;;;;;37.72;23.60;;;12.60;99.90;;;;;;4950720;28;20020;-72
2023/05/13 05:09:48;;;;;;;32.75;22.73;;;12.60;99.90;;;;;;4953469;29;20023;-72
2023/05/13 05:12:14;;;;;;;35.83;21.98;;;12.60;99.90;;;;;;4953514;29;20031;-72
2023/05/13 05:14:40;;;;;;;36.78;23.02;;;12.70;99.90;;;;;;4948935;28;20384;-72
2023/05/13 05:17:06;;;;;;;37.42;22.10;;;12.70;99.90;;;;;;4942905;29;20087;-72
2023/05/13 05:19:31;;;;;;;31.25;22.20;;;12.70;99.90;;;;;;4952381;29;20492;-72
2023/05/13 05:21:57;;;;;;;35.42;21.55;;;12.70;99.90;;;;;;4953752;28;20019;-72
2023/05/13 05:24:23;;;;;;;36.60;23.17;;;12.80;99.90;;;;;;4944868;28;20030;-72
2023/05/13 05:26:48;;;;;;;33.80;22.45;;;12.80;99.90;;;;;;4948756;29;20031;-72
2023/05/13 05:29:14;;;;;;;37.97;23.25;;;12.90;99.90;;;;;;4948454;29;20055;-72
2023/05/13 05:31:40;;;;;;;40.22;22.90;;;12.90;99.90;;;;;;4947648;29;20070;-72
2023/05/13 05:34:06;;;;;;;37.40;22.65;;;12.90;99.90;;;;;;4946391;29;20094;-72
2023/05/13 05:36:32;;;;;;;36.17;21.63;;;12.90;99.90;;;;;;4951496;28;20030;-72
2023/05/13 05:38:57;;;;;;;35.17;21.38;;;13.00;99.90;;;;;;4950725;29;20027;-72
2023/05/13 05:41:23;;;;;;;38.97;21.80;;;13.00;99.90;;;;;;4941351;28;20395;-70
2023/05/13 05:43:49;;;;;;;38.03;21.58;;;13.00;99.90;;;;;;4945960;28;20031;-71
2023/05/13 05:46:15;;;;;;;41.00;22.45;;;13.10;99.90;;;;;;4937332;29;20577;-71
2023/05/13 05:48:40;;;;;;;33.35;21.58;;;13.10;99.90;;;;;;4955279;29;20027;-71
2023/05/13 05:51:06;;;;;;;40.20;22.50;;;13.10;99.90;;;;;;4957355;28;20027;-72
2023/05/13 05:53:33;;;;;;;35.67;21.40;;;13.20;99.90;;;;;;4956836;28;20051;-71
2023/05/13 05:55:59;;;;;;;37.05;22.38;;;13.20;99.90;;;;;;4953466;28;20553;-71
2023/05/13 05:58:25;;;;;;;32.55;21.48;;;13.30;99.90;;;;;;4957306;28;20058;-71
2023/05/13 06:00:53;;;;;;;31.90;20.70;;;13.30;99.90;;;;;;4952187;28;20371;-71
2023/05/13 06:03:19;;;;;;;33.15;21.50;;;13.30;99.90;;;;;;4956544;28;20041;-71
2023/05/13 06:05:45;;;;;;;35.40;21.65;;;13.40;99.90;;;;;;4955083;29;20031;-72
2023/05/13 06:08:10;;;;;;;32.90;21.02;;;13.40;99.90;;;;;;4946378;29;20031;-71
2023/05/13 06:10:37;;;;;;;32.92;21.13;;;13.40;99.90;;;;;;4945849;28;20072;-71
2023/05/13 06:13:03;;;;;;;29.45;19.50;;;13.50;99.90;;;;;;4954762;28;20406;-71
2023/05/13 06:15:29;;;;;;;34.17;20.77;;;13.60;99.90;;;;;;4950877;28;20026;-71
2023/05/13 06:17:54;;;;;;;27.35;19.70;;;13.60;99.90;;;;;;4955335;28;20023;-71
2023/05/13 06:20:20;;;;;;;26.45;18.92;;;13.60;99.90;;;;;;4953253;28;20027;-71
2023/05/13 06:22:46;;;;;;;31.05;19.27;;;13.70;99.90;;;;;;4947276;29;20028;-71
2023/05/13 06:25:12;;;;;;;33.72;19.55;;;13.80;99.90;;;;;;4945408;29;20483;-71
2023/05/13 06:27:38;;;;;;;28.85;18.45;;;13.80;99.90;;;;;;4955169;28;20024;-71
2023/05/13 06:30:05;;;;;;;27.67;18.20;;;13.90;99.90;;;;;;4955140;29;20023;-71
2023/05/13 06:32:31;;;;;;;27.15;18.20;;;13.90;99.90;;;;;;4943008;28;20027;-72
2023/05/13 06:34:56;;;;;;;27.95;18.50;;;14.00;99.90;;;;;;4954677;28;20027;-71
2023/05/13 06:37:22;;;;;;;25.55;18.50;;;14.10;99.90;;;;;;4956015;29;20027;-71
2023/05/13 06:39:48;;;;;;;33.75;17.48;;;14.20;99.90;;;;;;4954239;29;20513;-70
2023/05/13 06:42:13;;;;;;;25.85;17.70;;;14.20;99.90;;;;;;4955108;29;20518;-70
2023/05/13 06:44:39;;;;;;;27.98;17.13;;;14.30;99.90;;;;;;4949500;28;20066;-72
2023/05/13 06:47:06;;;;;;;26.33;16.73;;;14.40;99.90;;;;;;4952304;28;20062;-72
2023/05/13 06:49:34;;;;;;;28.23;16.33;;;14.50;99.90;;;;;;4955706;28;20027;-71
2023/05/13 06:52:00;;;;;;;23.55;16.25;;;14.60;99.90;;;;;;4943635;29;20027;-71
2023/05/13 06:54:26;;;;;;;28.70;16.60;;;14.60;99.90;;;;;;4954860;28;20519;-72
2023/05/13 06:56:52;;;;;;;24.42;15.68;;;14.70;99.90;;;;;;4949855;28;20023;-71
2023/05/13 06:59:19;;;;;;;23.92;15.32;;;14.80;99.90;;;;;;4954756;28;20047;-71
2023/05/13 07:01:44;;;;;;;25.73;16.10;;;14.90;99.90;;;;;;4947344;28;20027;-71
2023/05/13 07:04:10;;;;;;;23.85;15.65;;;15.00;99.90;;;;;;4953626;28;20499;-72
2023/05/13 07:06:36;;;;;;;25.73;14.82;;;15.20;99.90;;;;;;4952927;28;20027;-72
2023/05/13 07:09:02;;;;;;;22.00;13.88;;;15.30;99.90;;;;;;4953806;28;20486;-71
2023/05/13 07:11:28;;;;;;;19.38;13.38;;;15.40;99.90;;;;;;4954025;28;20019;-71
2023/05/13 07:13:54;;;;;;;18.60;13.30;;;15.50;99.90;;;;;;4945817;28;20543;-71
2023/05/13 07:16:20;;;;;;;18.85;13.27;;;15.60;99.90;;;;;;4954517;29;20110;-71
2023/05/13 07:18:45;;;;;;;20.83;12.50;;;15.70;99.90;;;;;;4955202;29;20459;-71
2023/05/13 07:21:12;;;;;;;19.10;12.30;;;15.80;99.90;;;;;;4955093;28;20389;-71
2023/05/13 07:23:38;;;;;;;16.17;11.60;;;15.90;99.90;;;;;;4955394;29;20107;-72
2023/05/13 07:26:03;;;;;;;21.48;12.20;;;16.00;99.90;;;;;;4955008;28;20107;-71
2023/05/13 07:28:29;;;;;;;17.77;11.18;;;16.10;99.90;;;;;;4953488;29;20023;-71
2023/05/13 07:30:55;;;;;;;16.30;11.77;;;16.20;99.90;;;;;;4942874;28;20086;-72
2023/05/13 07:33:21;;;;;;;16.48;11.48;;;16.30;99.90;;;;;;4942609;29;20043;-72
2023/05/13 07:35:46;;;;;;;22.83;10.88;;;16.40;99.90;;;;;;4952983;29;20094;-72
2023/05/13 07:38:12;;;;;;;19.05;10.45;;;16.50;99.90;;;;;;4953179;29;20023;-72
2023/05/13 07:40:37;;;;;;;18.10;10.30;;;16.70;99.90;;;;;;4954045;29;20031;-71
2023/05/13 07:43:03;;;;;;;12.32;9.38;;;16.80;99.90;;;;;;4954167;28;20027;-71
2023/05/13 07:45:29;;;;;;;17.98;10.38;;;17.00;99.90;;;;;;4951733;29;20102;-71
2023/05/13 07:47:55;;;;;;;18.10;9.50;;;17.10;99.90;;;;;;4947927;29;20061;-71
2023/05/13 07:50:20;;;;;;;16.25;9.45;;;17.30;99.90;;;;;;4952685;28;20078;-71
2023/05/13 07:52:48;;;;;;;14.27;9.75;;;17.40;99.90;;;;;;4947430;29;20483;-71
2023/05/13 07:55:14;;;;;;;13.32;9.40;;;17.50;99.90;;;;;;4954429;28;20031;-71
2023/05/13 07:57:40;;;;;;;22.55;10.48;;;17.50;99.90;;;;;;4945430;28;20028;-72
2023/05/13 08:00:06;;;;;;;15.05;9.45;;;17.60;99.90;;;;;;4951238;29;20142;-72
2023/05/13 08:02:33;;;;;;;15.35;9.20;;;17.70;99.90;;;;;;4949591;29;20527;-72
2023/05/13 08:04:59;;;;;;;15.38;8.60;;;17.80;99.90;;;;;;4945482;29;20031;-72
2023/05/13 08:07:25;;;;;;;15.82;9.02;;;17.80;99.90;;;;;;4952109;28;20097;-72
2023/05/13 08:09:51;;;;;;;14.40;8.57;;;17.90;99.90;;;;;;4951389;28;20028;-72
2023/05/13 08:12:16;;;;;;;14.77;8.32;;;18.00;99.90;;;;;;4947342;28;20026;-72
2023/05/13 08:14:42;;;;;;;20.92;8.27;;;18.00;99.90;;;;;;4954049;29;20082;-72
2023/05/13 08:17:07;;;;;;;11.30;7.45;;;18.10;99.90;;;;;;4944005;29;20019;-72
2023/05/13 08:19:34;;;;;;;12.15;8.05;;;18.20;99.90;;;;;;4953058;29;20514;-72
2023/05/13 08:22:00;;;;;;;12.20;8.00;;;18.30;99.90;;;;;;4945255;28;20051;-71
2023/05/13 08:24:26;;;;;;;11.40;7.53;;;18.40;99.90;;;;;;4951677;28;20110;-76
2023/05/13 08:26:51;;;;;;;15.38;7.88;;;18.50;99.90;;;;;;4948788;29;20079;-74
2023/05/13 08:29:17;;;;;;;14.05;7.90;;;18.60;99.90;;;;;;4952336;28;20461;-74
2023/05/13 08:31:42;;;;;;;11.52;7.07;;;18.70;99.90;;;;;;4953572;29;20023;-74
2023/05/13 08:34:08;;;;;;;14.45;7.30;;;18.80;99.90;;;;;;4953416;29;20035;-75
2023/05/13 08:36:33;;;;;;;10.95;7.60;;;18.90;99.90;;;;;;4952191;29;20030;-75
2023/05/13 08:39:00;;;;;;;12.85;7.22;;;18.90;99.90;;;;;;4951966;29;20483;-74
2023/05/13 08:41:27;;;;;;;11.70;6.80;;;19.00;99.90;;;;;;4950906;29;20015;-75
2023/05/13 08:43:55;;;;;;;13.18;7.70;;;19.10;99.90;;;;;;4948429;28;20094;-75
2023/05/13 08:46:23;;;;;;;10.50;6.82;;;19.20;99.90;;;;;;4953586;28;20395;-74
2023/05/13 08:48:49;;;;;;;10.52;6.43;;;19.30;99.90;;;;;;4953306;28;20027;-74
2023/05/13 08:51:15;;;;;;;8.95;6.20;;;19.30;99.90;;;;;;4945512;28;20386;-75
2023/05/13 08:53:43;;;;;;;10.10;6.55;;;19.30;99.90;;;;;;4953169;29;20019;-75
2023/05/13 08:56:09;;;;;;;12.65;6.38;;;19.30;99.90;;;;;;4945273;28;20467;-74
2023/05/13 08:58:35;;;;;;;11.32;6.20;;;19.40;99.90;;;;;;4951774;29;20031;-76
2023/05/13 09:01:02;;;;;;;13.57;6.40;;;19.40;99.90;;;;;;4944829;28;20658;-76
2023/05/13 09:03:28;;;;;;;9.68;5.80;;;19.50;99.90;;;;;;4949969;29;20046;-74
2023/05/13 09:05:54;;;;;;;10.50;5.65;;;19.60;99.90;;;;;;4951955;28;20474;-75
2023/05/13 09:08:19;;;;;;;10.45;5.72;;;19.80;99.90;;;;;;4944177;29;20054;-74
2023/05/13 09:10:45;;;;;;;13.73;5.72;;;19.90;99.90;;;;;;4940524;28;20039;-75
2023/05/13 09:13:12;;;;;;;7.88;5.70;;;20.00;99.90;;;;;;4934438;29;20028;-74
2023/05/13 09:15:41;;;;;;;11.63;5.40;;;20.00;99.90;;;;;;4947515;29;20027;-74
2023/05/13 09:18:07;;;;;;;10.82;5.40;;;20.00;99.90;;;;;;4951918;29;20021;-74
2023/05/13 09:20:34;;;;;;;12.25;5.93;;;20.00;99.90;;;;;;4952386;29;20489;-76
2023/05/13 09:23:02;;;;;;;13.30;5.78;;;20.00;99.90;;;;;;4952846;28;20035;-75
2023/05/13 09:25:29;;;;;;;8.85;5.57;;;20.00;99.90;;;;;;4953189;28;20031;-75
2023/05/13 09:28:06;;;;;;;13.25;5.80;;;20.10;99.90;;;;;;4952898;28;20026;-75
2023/05/13 09:30:39;;;;;;;12.52;5.38;;;20.10;99.90;;;;;;4943305;29;20019;-75
2023/05/13 09:33:14;;;;;;;10.15;5.40;;;20.10;99.90;;;;;;4939954;28;20027;-75
2023/05/13 09:35:42;;;;;;;8.27;4.80;;;20.10;99.90;;;;;;4942088;28;20028;-74
2023/05/13 09:38:15;;;;;;;9.98;5.50;;;20.20;99.90;;;;;;4951027;29;20016;-75
2023/05/13 09:40:52;;;;;;;9.20;5.60;;;20.20;99.90;;;;;;4952681;29;20336;-75
2023/05/13 09:43:23;;;;;;;8.98;5.28;;;20.30;99.90;;;;;;4951278;28;20042;-75
2023/05/13 09:45:56;;;;;;;9.48;4.93;;;20.40;99.90;;;;;;4951037;29;20102;-76
2023/05/13 09:48:27;;;;;;;7.57;5.20;;;20.40;99.90;;;;;;4951066;29;20027;-75
2023/05/13 09:50:54;;;;;;;7.07;4.57;;;20.40;99.90;;;;;;4946399;28;20079;-77
2023/05/13 09:53:20;;;;;;;9.32;4.82;;;20.50;99.90;;;;;;4944912;29;20026;-76
2023/05/13 09:55:56;;;;;;;9.13;5.40;;;20.50;99.80;;;;;;4953539;28;20031;-77
2023/05/13 09:58:23;;;;;;;11.82;5.25;;;20.60;99.70;;;;;;4947908;28;20099;-77
2023/05/13 10:00:50;;;;;;;9.98;4.78;;;20.60;99.90;;;;;;4952050;28;20035;-77
2023/05/13 10:03:16;;;;;;;8.88;4.80;;;20.70;99.90;;;;;;4943020;29;20032;-77
2023/05/13 10:05:43;;;;;;;10.63;5.70;;;20.80;99.90;;;;;;4951100;29;20042;-77
2023/05/13 10:08:10;;;;;;;19.25;6.75;;;21.00;99.90;;;;;;4954096;29;20110;-76
2023/05/13 10:10:37;;;;;;;24.30;7.25;;;21.10;99.90;;;;;;4949421;28;20023;-75
2023/05/13 10:13:05;;;;;;;21.33;7.40;;;21.20;99.90;;;;;;4951440;29;20034;-75
2023/05/13 10:15:32;;;;;;;18.67;7.60;;;21.30;99.90;;;;;;4948172;29;20055;-75
2023/05/13 10:17:58;;;;;;;18.33;7.57;;;21.30;99.90;;;;;;4952314;28;20062;-75
2023/05/13 10:20:25;;;;;;;19.58;7.20;;;21.20;99.90;;;;;;4951353;29;20019;-75
2023/05/13 10:22:51;;;;;;;21.45;7.68;;;21.10;99.90;;;;;;4952630;29;20039;-75
2023/05/13 10:25:18;;;;;;;24.80;7.50;;;21.10;99.90;;;;;;4945988;28;20024;-75
2023/05/13 10:27:46;;;;;;;21.75;8.23;;;21.30;99.90;;;;;;4937959;29;20388;-75
2023/05/13 10:30:12;;;;;;;21.70;8.00;;;21.40;99.90;;;;;;4941375;29;20023;-75
2023/05/13 10:32:40;;;;;;;25.05;8.32;;;21.50;99.90;;;;;;4940546;28;20225;-74
2023/05/13 10:35:15;;;;;;;26.10;7.97;;;21.50;99.90;;;;;;4955139;29;20105;-75
2023/05/13 10:37:56;;;;;;;22.58;8.13;;;21.40;99.90;;;;;;4953147;28;20927;-75
2023/05/13 10:40:56;;;;;;;25.40;8.23;;;21.40;99.90;;;;;;4955727;29;20023;-75
2023/05/13 10:43:25;;;;;;;21.88;8.00;;;21.40;99.90;;;;;;4954534;29;20024;-75
2023/05/13 10:46:15;;;;;;;22.08;7.93;;;21.40;99.90;;;;;;4955866;28;20031;-75
2023/05/13 10:48:46;;;;;;;23.02;7.90;;;21.40;99.90;;;;;;4942602;29;20408;-73
2023/05/13 10:51:17;;;;;;;21.73;8.00;;;21.30;99.90;;;;;;4949351;29;20023;-74
2023/05/13 10:53:46;;;;;;;20.48;8.52;;;21.30;99.90;;;;;;4955802;28;20035;-74
2023/05/13 10:56:12;;;;;;;27.90;8.60;;;21.30;99.90;;;;;;4947227;28;20099;-74
2023/05/13 10:58:38;;;;;;;18.80;7.85;;;21.30;99.90;;;;;;4951985;29;20085;-74
2023/05/13 11:01:13;;;;;;;25.60;9.40;;;21.20;99.90;;;;;;4947063;29;20051;-74
2023/05/13 11:03:39;;;;;;;;;;;21.10;99.90;;;;;;4955012;28;20459;-74
2023/05/13 11:06:16;;;;;;;23.70;8.65;;;21.10;99.90;;;;;;4941342;29;19914;-74
2023/05/13 11:08:44;;;;;;;19.17;8.80;;;21.10;99.90;;;;;;4938080;29;20028;-74
2023/05/13 11:11:28;;;;;;;20.83;8.77;;;21.10;99.90;;;;;;4941886;29;20386;-74
2023/05/13 11:14:01;;;;;;;21.10;8.18;;;21.30;99.90;;;;;;4949773;28;20027;-74
2023/05/13 11:16:27;;;;;;;22.92;8.50;;;21.30;99.90;;;;;;4950407;28;20051;-74
2023/05/13 11:18:53;;;;;;;19.65;8.70;;;21.40;99.90;;;;;;4948592;29;20027;-74
2023/05/13 11:21:32;;;;;;;18.98;8.13;;;21.30;99.90;;;;;;4955147;28;20070;-74
2023/05/13 11:24:04;;;;;;;21.00;8.95;;;21.40;99.90;;;;;;4954683;28;20086;-74
2023/05/13 11:26:46;;;;;;;20.98;8.63;;;21.40;99.90;;;;;;4943467;29;20019;-74
2023/05/13 11:29:11;;;;;;;22.05;9.05;;;21.50;99.90;;;;;;4951254;29;20031;-74
2023/05/13 11:31:49;;;;;;;24.17;9.20;;;21.30;99.90;;;;;;4948977;29;20011;-75
2023/05/13 11:34:19;;;;;;;19.67;8.27;;;21.30;99.90;;;;;;4949102;29;20074;-75
2023/05/13 11:36:48;;;;;;;21.73;9.07;;;21.30;99.90;;;;;;4967620;28;20020;-76
2023/05/13 11:39:19;;;;;;;18.35;8.88;;;21.30;99.90;;;;;;4953463;29;20027;-76
2023/05/13 11:41:51;;;;;;;21.35;8.55;;;21.30;99.90;;;;;;4950623;28;20475;-76
2023/05/13 11:44:19;;;;;;;23.42;8.32;;;21.30;99.90;;;;;;4950886;28;20106;-76
2023/05/13 11:47:01;;;;;;;20.92;8.07;;;21.20;99.90;;;;;;4953598;29;20487;-75
2023/05/13 11:49:46;;;;;;;19.95;8.30;;;21.30;99.90;;;;;;4948727;29;20024;-76
2023/05/13 11:52:16;;;;;;;20.80;7.97;;;21.50;99.90;;;;;;4943023;29;20111;-75
2023/05/13 11:54:49;;;;;;;22.30;8.77;;;21.80;99.90;;;;;;4954505;28;20038;-75
2023/05/13 11:57:23;;;;;;;18.73;7.93;;;21.90;99.90;;;;;;4954544;29;20031;-76
2023/05/13 11:59:57;;;;;;;19.02;8.68;;;21.90;99.90;;;;;;4954840;28;20051;-76
2023/05/13 12:02:28;;;;;;;20.05;7.72;;;22.00;99.90;;;;;;4943305;28;20035;-75
2023/05/13 12:04:54;;;;;;;20.98;8.10;;;22.00;99.90;;;;;;4955143;29;20045;-76
2023/05/13 12:07:25;;;;;;;24.92;8.25;;;22.10;99.90;;;;;;4953867;28;20034;-76
2023/05/13 12:09:54;;;;;;;23.92;8.32;;;22.10;99.90;;;;;;4952002;28;20111;-75
2023/05/13 12:12:20;;;;;;;18.85;8.02;;;22.00;99.90;;;;;;4942729;29;20015;-78
2023/05/13 12:14:49;;;;;;;22.98;8.32;;;22.00;99.90;;;;;;4955991;29;20035;-77
2023/05/13 12:17:18;;;;;;;22.98;8.25;;;21.70;99.90;;;;;;4950078;29;20048;-77
2023/05/13 12:20:11;;;;;;;19.80;8.35;;;21.60;99.90;;;;;;4948529;29;20045;-77
2023/05/13 12:22:43;;;;;;;17.15;8.15;;;21.50;99.90;;;;;;4952051;29;20034;-77
2023/05/13 12:25:44;;;;;;;18.80;8.18;;;21.50;99.90;;;;;;4953465;28;20043;-78
2023/05/13 12:28:15;;;;;;;20.00;8.25;;;21.70;99.90;;;;;;4952276;28;20510;-76
2023/05/13 12:30:49;;;;;;;21.80;8.65;;;21.70;99.90;;;;;;4949426;28;20023;-76
2023/05/13 12:33:20;;;;;;;20.60;8.27;;;21.70;99.90;;;;;;4953963;28;20027;-76